Time;durP1;ratioP1;P1;durP2;ratioP2;P2;SDS_P1;SDS_P2;PMS_P1;PMS_P2;Temp;Humidity;BMP_temperature;BMP_pressure;BME280_temperature;BME280_humidity;BME280_pressure;Samples;Min_cycle;Max_cycle;Signal;HPM_P1;HPM_P2
2023/03/22 00:00:42;;;;;;;;;;;;;;;-142.75;100.00;76881.31;5031718;28;19929;-69
2023/03/22 00:03:09;;;;;;;;;;;;;;;-142.75;100.00;76883.28;5031613;28;19927;-69
2023/03/22 00:05:34;;;;;;;;;;;;;;;-142.75;100.00;76869.50;5030501;28;19921;-69
2023/03/22 00:07:59;;;;;;;;;;;;;;;-142.75;100.00;76873.44;5030187;28;19982;-69
2023/03/22 00:10:26;;;;;;;;;;;;;;;-142.75;100.00;76875.41;5031709;28;19913;-68
2023/03/22 00:12:51;;;;;;;;;;;;;;;-142.75;100.00;76885.25;5031580;28;19913;-67
2023/03/22 00:15:17;;;;;;;;;;;;;;;-142.75;100.00;76881.31;5031648;28;19970;-69
2023/03/22 00:17:43;;;;;;;;;;;;;;;-142.75;100.00;76887.22;5031603;28;20000;-69
2023/03/22 00:20:10;;;;;;;;;;;;;;;-142.75;100.00;76895.09;5031595;28;19952;-70
2023/03/22 00:22:35;;;;;;;;;;;;;;;-142.75;100.00;76887.22;5031448;28;20321;-69
2023/03/22 00:25:00;;;;;;;;;;;;;;;-142.75;100.00;76885.25;5031542;28;19948;-68
2023/03/22 00:27:26;;;;;;;;;;;;;;;-142.75;100.00;76887.22;5030294;28;19935;-68
2023/03/22 00:29:51;;;;;;;;;;;;;;;-142.75;100.00;76877.38;5030255;28;19920;-70
2023/03/22 00:32:16;;;;;;;;;;;;;;;-142.75;100.00;76879.34;5031388;28;20385;-70
2023/03/22 00:34:41;;;;;;;;;;;;;;;-142.75;100.00;76875.41;5031443;28;19920;-69
2023/03/22 00:37:07;;;;;;;;;;;;;;;-142.75;100.00;76867.53;5031107;28;20446;-69
2023/03/22 00:39:32;;;;;;;;;;;;;;;-142.75;100.00;76885.25;5030188;28;19913;-69
2023/03/22 00:41:57;;;;;;;;;;;;;;;-142.75;100.00;76891.16;5034614;28;20339;-69
2023/03/22 00:44:22;;;;;;;;;;;;;;;-142.75;100.00;76881.31;5034902;28;19913;-69
2023/03/22 00:46:48;;;;;;;;;;;;;;;-142.75;100.00;76881.31;5035087;28;20020;-70
2023/03/22 00:49:13;;;;;;;;;;;;;;;-142.75;100.00;76879.34;5034819;28;19920;-69
2023/03/22 00:51:38;;;;;;;;;;;;;;;-142.75;100.00;76877.38;5034681;28;19913;-69
2023/03/22 00:54:03;;;;;;;;;;;;;;;-142.75;100.00;76863.59;5034579;28;19920;-70
2023/03/22 00:56:28;;;;;;;;;;;;;;;-142.75;100.00;76863.59;5033607;28;19917;-69
2023/03/22 00:58:54;;;;;;;;;;;;;;;-142.75;100.00;76853.75;5034560;28;19921;-69
2023/03/22 01:01:19;;;;;;;;;;;;;;;-142.75;100.00;76839.97;5033372;28;19924;-69
2023/03/22 01:03:48;;;;;;;;;;;;;;;-142.75;100.00;76822.25;5034565;28;19914;-68
2023/03/22 01:06:13;;;;;;;;;;;;;;;-142.75;100.00;76828.16;5034740;28;20300;-69
2023/03/22 01:08:39;;;;;;;;;;;;;;;-142.75;100.00;76824.22;5034540;28;19913;-69
2023/03/22 01:11:05;;;;;;;;;;;;;;;-142.75;100.00;76816.34;5033283;28;19917;-69
2023/03/22 01:13:30;;;;;;;;;;;;;;;-142.75;100.00;76814.38;5033007;28;20008;-70
2023/03/22 01:15:55;;;;;;;;;;;;;;;-142.75;100.00;76808.50;5034514;28;20427;-70
2023/03/22 01:18:20;;;;;;;;;;;;;;;-142.75;100.00;76810.44;5034322;28;19920;-69
2023/03/22 01:20:46;;;;;;;;;;;;;;;-142.75;100.00;76804.53;5034220;28;19917;-70
2023/03/22 01:23:11;;;;;;;;;;;;;;;-142.75;100.00;76806.50;5034198;28;19946;-69
2023/03/22 01:25:36;;;;;;;;;;;;;;;-142.75;100.00;76806.50;5034326;28;19956;-69
2023/03/22 01:28:01;;;;;;;;;;;;;;;-142.75;100.00;76786.84;5032847;28;19913;-69
2023/03/22 01:30:27;;;;;;;;;;;;;;;-142.75;100.00;76792.75;5034085;28;19913;-69
2023/03/22 01:32:52;;;;;;;;;;;;;;;-142.75;100.00;76794.69;5034124;28;20395;-68
2023/03/22 01:35:18;;;;;;;;;;;;;;;-142.75;100.00;76786.84;5032512;28;19964;-69
2023/03/22 01:37:43;;;;;;;;;;;;;;;-142.75;100.00;76771.09;5032679;28;19913;-68
2023/03/22 01:40:09;;;;;;;;;;;;;;;-142.75;100.00;76763.22;5033942;28;20376;-69
2023/03/22 01:42:35;;;;;;;;;;;;;;;-142.75;100.00;76769.13;5033826;28;19917;-69
2023/03/22 01:45:12;;;;;;;;;;;;;;;-142.75;100.00;76767.16;5033857;28;20418;-69
2023/03/22 01:47:38;;;;;;;;;;;;;;;-142.75;100.00;76755.34;5033785;28;19913;-70
2023/03/22 01:50:04;;;;;;;;;;;;;;;-142.75;100.00;76747.47;5033810;28;19914;-69
2023/03/22 01:52:29;;;;;;;;;;;;;;;-142.75;100.00;76737.63;5032367;28;20280;-68
2023/03/22 01:54:55;;;;;;;;;;;;;;;-142.75;100.00;76741.56;5032359;28;20400;-68
2023/03/22 01:57:21;;;;;;;;;;;;;;;-142.75;100.00;76725.81;5033678;28;19963;-68
2023/03/22 01:59:48;;;;;;;;;;;;;;;-142.75;100.00;76729.75;5031970;28;20400;-69
2023/03/22 02:02:17;;;;;;;;;;;;;;;-142.75;100.00;76725.81;5033589;28;19945;-69
2023/03/22 02:04:44;;;;;;;;;;;;;;;-142.75;100.00;76712.03;5033368;28;19913;-69
2023/03/22 02:07:14;;;;;;;;;;;;;;;-142.75;100.00;76706.13;5032220;28;19913;-70
2023/03/22 02:09:41;;;;;;;;;;;;;;;-142.75;100.00;76710.06;5032116;28;19914;-68
2023/03/22 02:12:15;;;;;;;;;;;;;;;-142.75;100.00;76706.13;5033078;28;19917;-68
2023/03/22 02:14:49;;;;;;;;;;;;;;;-142.75;100.00;76700.22;5033234;28;19917;-69
2023/03/22 02:17:17;;;;;;;;;;;;;;;-142.75;100.00;76686.44;5033198;28;19925;-69
2023/03/22 02:19:45;;;;;;;;;;;;;;;-142.75;100.00;76676.59;5031939;28;19913;-69
2023/03/22 02:22:27;;;;;;;;;;;;;;;-142.75;100.00;76668.72;5033068;28;19964;-69
2023/03/22 02:25:04;;;;;;;;;;;;;;;-142.75;100.00;76662.81;5032851;28;19914;-69
2023/03/22 02:27:58;;;;;;;;;;;;;;;-142.75;100.00;76662.81;5031604;28;19920;-67
2023/03/22 02:30:26;;;;;;;;;;;;;;;-142.75;100.00;76652.97;4996078;28;19933;-67
2023/03/22 02:33:05;;;;;;;;;;;;;;;-142.75;100.00;76652.97;5033015;28;20408;-71
2023/03/22 02:35:35;;;;;;;;;;;;;;;-142.75;100.00;76629.34;5032977;28;19913;-69
2023/03/22 02:38:03;;;;;;;;;;;;;;;-142.75;100.00;76625.41;5032846;28;19967;-69
2023/03/22 02:40:32;;;;;;;;;;;;;;;-142.75;100.00;76629.34;5032679;28;19924;-69
2023/03/22 02:43:05;;;;;;;;;;;;;;;-142.75;100.00;76633.28;5032950;28;20004;-69
2023/03/22 02:45:33;;;;;;;;;;;;;;;-142.75;100.00;76621.47;5031673;28;19920;-70
2023/03/22 02:48:22;;;;;;;;;;;;;;;-142.75;100.00;76625.41;5032351;28;19917;-69
2023/03/22 02:50:52;;;;;;;;;;;;;;;-142.75;100.00;76637.22;5029511;28;19920;-69
2023/03/22 02:53:20;;;;;;;;;;;;;;;-142.75;100.00;76621.47;5032570;28;19920;-68
2023/03/22 02:55:51;;;;;;;;;;;;;;;-142.75;100.00;76625.41;5032775;28;20423;-70
2023/03/22 02:58:20;;;;;;;;;;;;;;;-142.75;100.00;76623.44;5032428;28;20011;-69
2023/03/22 03:00:48;;;;;;;;;;;;;;;-142.75;100.00;76617.53;5032210;28;19917;-68
2023/03/22 03:03:17;;;;;;;;;;;;;;;-142.75;100.00;76633.28;5031795;28;19959;-68
2023/03/22 03:05:45;;;;;;;;;;;;;;;-142.75;100.00;76617.53;5032295;28;19936;-69
2023/03/22 03:08:12;;;;;;;;;;;;;;;-142.75;100.00;76613.59;5032222;28;19919;-69
2023/03/22 03:10:39;;;;;;;;;;;;;;;-142.75;100.00;76601.78;5032232;28;19956;-69
2023/03/22 03:13:04;;;;;;;;;;;;;;;-142.75;100.00;76609.66;5030978;28;19917;-69
2023/03/22 03:15:30;;;;;;;;;;;;;;;-142.75;100.00;76619.50;5032170;28;19913;-69
2023/03/22 03:18:13;;;;;;;;;;;;;;;-142.75;100.00;76619.50;5030862;28;19955;-68
2023/03/22 03:20:59;;;;;;;;;;;;;;;-142.75;100.00;76615.56;5032572;28;19918;-69
2023/03/22 03:23:30;;;;;;;;;;;;;;;-142.75;100.00;76619.50;5030811;28;19971;-69
2023/03/22 03:26:04;;;;;;;;;;;;;;;-142.75;100.00;76621.47;5031987;28;19922;-69
2023/03/22 03:28:45;;;;;;;;;;;;;;;-142.75;100.00;76613.59;5032080;28;19913;-68
2023/03/22 03:31:19;;;;;;;;;;;;;;;-142.75;100.00;76609.66;5031779;28;19920;-69
2023/03/22 03:33:54;;;;;;;;;;;;;;;-142.75;100.00;76603.75;5031812;28;19963;-69
2023/03/22 03:36:20;;;;;;;;;;;;;;;-142.75;100.00;76601.78;5031906;28;19917;-69
2023/03/22 03:38:48;;;;;;;;;;;;;;;-142.75;100.00;76593.91;5030596;28;19921;-69
2023/03/22 03:41:16;;;;;;;;;;;;;;;-142.75;100.00;76591.94;5030555;28;19917;-69
2023/03/22 03:43:42;;;;;;;;;;;;;;;-142.75;100.00;76595.88;5030381;28;19945;-69
2023/03/22 03:46:07;;;;;;;;;;;;;;;-142.75;100.00;76582.09;5032007;28;19961;-69
2023/03/22 03:48:34;;;;;;;;;;;;;;;-142.75;100.00;76589.97;5031672;28;20392;-69
2023/03/22 03:51:00;;;;;;;;;;;;;;;-142.75;100.00;76591.94;5031813;28;19913;-69
2023/03/22 03:53:26;;;;;;;;;;;;;;;-142.75;100.00;76580.13;5031857;28;19967;-69
2023/03/22 03:55:51;;;;;;;;;;;;;;;-142.75;100.00;76576.19;5031876;28;19925;-69
2023/03/22 03:58:16;;;;;;;;;;;;;;;-142.75;100.00;76582.09;5031502;28;20023;-67
2023/03/22 04:00:42;;;;;;;;;;;;;;;-142.75;100.00;76574.22;5031678;28;19917;-69
2023/03/22 04:03:07;;;;;;;;;;;;;;;-142.75;100.00;76568.31;5030487;28;19920;-69
2023/03/22 04:05:32;;;;;;;;;;;;;;;-142.75;100.00;76564.38;5031787;28;19913;-69
2023/03/22 04:07:57;;;;;;;;;;;;;;;-142.75;100.00;76572.25;5031558;28;20466;-69
2023/03/22 04:10:23;;;;;;;;;;;;;;;-142.75;100.00;76582.09;5031798;28;19914;-67
2023/03/22 04:12:48;;;;;;;;;;;;;;;-142.75;100.00;76578.16;5031404;28;20323;-69
2023/03/22 04:15:14;;;;;;;;;;;;;;;-142.75;100.00;76586.03;5031153;28;19923;-68
2023/03/22 04:17:39;;;;;;;;;;;;;;;-142.75;100.00;76576.19;5035435;28;19913;-69
2023/03/22 04:20:05;;;;;;;;;;;;;;;-142.75;100.00;76574.22;5035312;28;19939;-69
2023/03/22 04:22:33;;;;;;;;;;;;;;;-142.75;100.00;76572.25;5035290;28;20354;-69
2023/03/22 04:25:00;;;;;;;;;;;;;;;-142.75;100.00;76593.91;5035358;28;20296;-69
2023/03/22 04:27:25;;;;;;;;;;;;;;;-142.75;100.00;76578.16;5035302;28;19913;-69
2023/03/22 04:29:51;;;;;;;;;;;;;;;-142.75;100.00;76584.06;5033996;28;20008;-69
2023/03/22 04:32:17;;;;;;;;;;;;;;;-142.75;100.00;76578.16;5035083;28;19951;-69
2023/03/22 04:34:43;;;;;;;;;;;;;;;-142.75;100.00;76576.19;5033746;28;20325;-69
2023/03/22 04:37:08;;;;;;;;;;;;;;;-142.75;100.00;76580.13;5034994;28;19948;-69
2023/03/22 04:39:34;;;;;;;;;;;;;;;-142.75;100.00;76588.00;5035114;28;19917;-69
2023/03/22 04:41:59;;;;;;;;;;;;;;;-142.75;100.00;76582.09;5033770;28;19946;-70
2023/03/22 04:44:24;;;;;;;;;;;;;;;-142.75;100.00;76580.13;5035023;28;20556;-69
2023/03/22 04:46:50;;;;;;;;;;;;;;;-142.75;100.00;76582.09;5035088;28;19913;-69
2023/03/22 04:49:15;;;;;;;;;;;;;;;-142.75;100.00;76595.88;5034885;28;20434;-69
2023/03/22 04:51:41;;;;;;;;;;;;;;;-142.75;100.00;76586.03;5034837;28;20372;-69
2023/03/22 04:54:06;;;;;;;;;;;;;;;-142.75;100.00;76597.84;5033563;28;19913;-71
2023/03/22 04:56:31;;;;;;;;;;;;;;;-142.75;100.00;76578.16;5033652;28;20019;-69
2023/03/22 04:58:57;;;;;;;;;;;;;;;-142.75;100.00;76591.94;5034534;28;20008;-69
2023/03/22 05:01:22;;;;;;;;;;;;;;;-142.75;100.00;76593.91;5034528;28;19924;-69
2023/03/22 05:03:47;;;;;;;;;;;;;;;-142.75;100.00;76595.88;5034589;28;19921;-68
2023/03/22 05:06:13;;;;;;;;;;;;;;;-142.75;100.00;76593.91;5034698;28;19967;-69
2023/03/22 05:08:38;;;;;;;;;;;;;;;-142.75;100.00;76599.81;5034497;28;20301;-68
2023/03/22 05:11:23;;;;;;;;;;;;;;;-142.75;100.00;76601.78;5034463;28;19923;-69
2023/03/22 05:13:48;;;;;;;;;;;;;;;-142.75;100.00;76597.84;5034490;28;19913;-69
2023/03/22 05:16:13;;;;;;;;;;;;;;;-142.75;100.00;76597.84;5034517;28;20396;-68
2023/03/22 05:18:44;;;;;;;;;;;;;;;-142.75;100.00;76595.88;5034373;28;20016;-69
2023/03/22 05:21:14;;;;;;;;;;;;;;;-142.75;100.00;76591.94;5034268;28;19925;-68
2023/03/22 05:23:39;;;;;;;;;;;;;;;-142.75;100.00;76595.88;5032888;28;20150;-68
2023/03/22 05:26:07;;;;;;;;;;;;;;;-142.75;100.00;76591.94;5033925;28;19996;-69
2023/03/22 05:28:33;;;;;;;;;;;;;;;-142.75;100.00;76599.81;5030052;28;19917;-69
2023/03/22 05:30:58;;;;;;;;;;;;;;;-142.75;100.00;76599.81;5032272;28;20544;-69
2023/03/22 05:33:23;;;;;;;;;;;;;;;-142.75;100.00;76591.94;5032406;28;19940;-69
2023/03/22 05:35:49;;;;;;;;;;;;;;;-142.75;100.00;76591.94;5031517;28;19914;-69
2023/03/22 05:38:15;;;;;;;;;;;;;;;-142.75;100.00;76603.75;5032938;28;19939;-69
2023/03/22 05:40:40;;;;;;;;;;;;;;;-142.75;100.00;76597.84;5033676;28;20380;-70
2023/03/22 05:43:06;;;;;;;;;;;;;;;-142.75;100.00;76601.78;5033484;28;19920;-69
2023/03/22 05:45:31;;;;;;;;;;;;;;;-142.75;100.00;76582.09;5033797;28;19919;-69
2023/03/22 05:47:56;;;;;;;;;;;;;;;-142.75;100.00;76601.78;5033803;28;19977;-68
2023/03/22 05:50:23;;;;;;;;;;;;;;;-142.75;100.00;76591.94;5033678;28;19917;-66
2023/03/22 05:52:48;;;;;;;;;;;;;;;-142.75;100.00;76593.91;5033479;28;19913;-69
2023/03/22 05:55:16;;;;;;;;;;;;;;;-142.75;100.00;76578.16;5033601;28;19972;-69
2023/03/22 05:57:42;;;;;;;;;;;;;;;-142.75;100.00;76597.84;5033432;28;19913;-67
2023/03/22 06:00:15;;;;;;;;;;;;;;;-142.75;100.00;76605.72;5033441;28;19920;-69
2023/03/22 06:02:41;;;;;;;;;;;;;;;-142.75;100.00;76586.03;5033455;28;19913;-69
2023/03/22 06:05:07;;;;;;;;;;;;;;;-142.75;100.00;76591.94;5033416;28;20331;-69
2023/03/22 06:07:32;;;;;;;;;;;;;;;-142.75;100.00;76588.00;5033278;28;20328;-68
2023/03/22 06:09:57;;;;;;;;;;;;;;;-142.75;100.00;76599.81;5033446;28;19913;-69
2023/03/22 06:12:24;;;;;;;;;;;;;;;-142.75;100.00;76601.78;5033126;28;20274;-69
2023/03/22 06:14:50;;;;;;;;;;;;;;;-142.75;100.00;76582.09;5033060;28;20339;-68
2023/03/22 06:17:15;;;;;;;;;;;;;;;-142.75;100.00;76597.84;5033224;28;19913;-69
2023/03/22 06:19:40;;;;;;;;;;;;;;;-142.75;100.00;76578.16;5031883;28;19963;-67
2023/03/22 06:22:05;;;;;;;;;;;;;;;-142.75;100.00;76582.09;5031808;28;19921;-69
2023/03/22 06:24:31;;;;;;;;;;;;;;;-142.75;100.00;76568.31;5033121;28;20358;-69
2023/03/22 06:26:56;;;;;;;;;;;;;;;-142.75;100.00;76550.59;5031566;28;19913;-69
2023/03/22 06:29:21;;;;;;;;;;;;;;;-142.75;100.00;76566.34;5031504;28;19919;-70
2023/03/22 06:31:46;;;;;;;;;;;;;;;-142.75;100.00;76568.31;5032920;28;19913;-69
2023/03/22 06:34:12;;;;;;;;;;;;;;;-142.75;100.00;76550.59;5031555;28;20296;-69
2023/03/22 06:36:37;;;;;;;;;;;;;;;-142.75;100.00;76566.34;5031706;28;19921;-69
2023/03/22 06:39:03;;;;;;;;;;;;;;;-142.75;100.00;76574.22;5030769;28;19913;-69
2023/03/22 06:41:29;;;;;;;;;;;;;;;-142.75;100.00;76578.16;5031497;28;19917;-68
2023/03/22 06:43:54;;;;;;;;;;;;;;;-142.75;100.00;76578.16;5031265;28;19963;-69
2023/03/22 06:46:19;;;;;;;;;;;;;;;-142.75;100.00;76578.16;5032509;28;20304;-68
2023/03/22 06:48:45;;;;;;;;;;;;;;;-142.75;100.00;76576.19;5032597;28;19913;-69
2023/03/22 06:51:10;;;;;;;;;;;;;;;-142.75;100.00;76574.22;5032397;28;19913;-69
2023/03/22 06:53:35;;;;;;;;;;;;;;;-142.75;100.00;76570.28;5032371;28;20327;-69
2023/03/22 06:56:00;;;;;;;;;;;;;;;-142.75;100.00;76586.03;5031391;28;20395;-69
2023/03/22 06:58:25;;;;;;;;;;;;;;;-142.75;100.00;76572.25;5031990;28;19963;-69
2023/03/22 07:00:51;;;;;;;;;;;;;;;-142.75;100.00;76570.28;5031688;28;19928;-69
2023/03/22 07:03:16;;;;;;;;;;;;;;;-142.75;100.00;76584.06;5032362;28;20605;-68
2023/03/22 07:05:42;;;;;;;;;;;;;;;-142.75;100.00;76572.25;5032383;28;19921;-69
2023/03/22 07:08:07;;;;;;;;;;;;;;;-142.75;100.00;76574.22;5032219;28;19920;-68
2023/03/22 07:10:32;;;;;;;;;;;;;;;-142.75;100.00;76570.28;5030831;28;19921;-68
2023/03/22 07:12:57;;;;;;;;;;;;;;;-142.75;100.00;76576.19;5032093;28;20380;-68
2023/03/22 07:15:23;;;;;;;;;;;;;;;-142.75;100.00;76552.56;5032153;28;19913;-68
2023/03/22 07:17:51;;;;;;;;;;;;;;;-142.75;100.00;76566.34;5032078;28;19917;-69
2023/03/22 07:20:17;;;;;;;;;;;;;;;-142.75;100.00;76566.34;5032189;28;19917;-69
2023/03/22 07:22:43;;;;;;;;;;;;;;;-142.75;100.00;76534.84;5030913;28;19935;-68
2023/03/22 07:25:08;;;;;;;;;;;;;;;-142.75;100.00;76530.91;5031988;28;20006;-68
2023/03/22 07:27:33;;;;;;;;;;;;;;;-142.75;100.00;76527.00;5031922;28;19920;-69
2023/03/22 07:29:58;;;;;;;;;;;;;;;-142.75;100.00;76521.09;5032153;28;19921;-69
2023/03/22 07:32:24;;;;;;;;;;;;;;;-142.75;100.00;76517.16;5031944;28;19971;-69
2023/03/22 07:34:49;;;;;;;;;;;;;;;-142.75;100.00;76507.31;5031720;28;19913;-70
2023/03/22 07:37:14;;;;;;;;;;;;;;;-142.75;100.00;76517.16;5030270;28;20015;-69
2023/03/22 07:39:40;;;;;;;;;;;;;;;-142.75;100.00;76503.38;5031872;28;19913;-69
2023/03/22 07:42:05;;;;;;;;;;;;;;;-142.75;100.00;76511.25;5031711;28;19971;-69
2023/03/22 07:44:30;;;;;;;;;;;;;;;-142.75;100.00;76505.34;5030429;28;19916;-70
2023/03/22 07:46:55;;;;;;;;;;;;;;;-142.75;100.00;76501.41;5031878;28;19913;-69
2023/03/22 07:49:21;;;;;;;;;;;;;;;-142.75;100.00;76495.50;5031640;28;19913;-67
2023/03/22 07:51:46;;;;;;;;;;;;;;;-142.75;100.00;76528.97;5035660;28;19935;-68
2023/03/22 07:54:11;;;;;;;;;;;;;;;-142.75;100.00;76521.09;5035669;28;20008;-69
2023/03/22 07:56:36;;;;;;;;;;;;;;;-142.75;100.00;76521.09;5044395;28;20300;-69
2023/03/22 07:59:01;;;;;;;;;;;;;;;-142.75;100.00;76521.09;5044902;28;20304;-68
2023/03/22 08:01:27;;;;;;;;;;;;;;;-142.75;100.00;76532.88;5042114;28;19970;-69
2023/03/22 08:03:52;;;;;;;;;;;;;;;-142.75;100.00;76513.22;5033877;28;20006;-68
2023/03/22 08:06:18;;;;;;;;;;;;;;;-142.75;100.00;76525.03;5035775;28;19913;-69
2023/03/22 08:08:44;;;;;;;;;;;;;;;-142.75;100.00;76528.97;5035739;28;19967;-68
2023/03/22 08:11:11;;;;;;;;;;;;;;;-142.75;100.00;76525.03;5035598;28;20389;-69
2023/03/22 08:13:36;;;;;;;;;;;;;;;-142.75;100.00;76544.69;5043009;28;19921;-68
2023/03/22 08:16:02;;;;;;;;;;;;;;;-142.75;100.00;76562.41;5042868;28;19920;-68
2023/03/22 08:18:27;;;;;;;;;;;;;;;-142.75;100.00;76548.63;5050121;28;19917;-68
2023/03/22 08:20:54;;;;;;;;;;;;;;;-142.75;100.00;76550.59;5046234;28;20016;-68
2023/03/22 08:23:19;;;;;;;;;;;;;;;-142.75;100.00;76558.47;5026822;28;19952;-68
2023/03/22 08:25:44;;;;;;;;;;;;;;;-142.75;100.00;76564.38;5039953;28;20025;-66
2023/03/22 08:28:12;;;;;;;;;;;;;;;-142.75;100.00;76564.38;5039090;28;19925;-69
2023/03/22 08:30:38;;;;;;;;;;;;;;;-142.75;100.00;76570.28;5034881;28;19920;-68
2023/03/22 08:33:03;;;;;;;;;;;;;;;-142.75;100.00;76558.47;5034587;28;20426;-67
2023/03/22 08:35:29;;;;;;;;;;;;;;;-142.75;100.00;76570.28;5034640;28;19913;-68
2023/03/22 08:37:55;;;;;;;;;;;;;;;-142.75;100.00;76562.41;5034490;28;20292;-68
2023/03/22 08:40:21;;;;;;;;;;;;;;;-142.75;100.00;76572.25;5034750;28;19917;-68
2023/03/22 08:42:47;;;;;;;;;;;;;;;-142.75;100.00;76562.41;5034506;28;20004;-69
2023/03/22 08:45:12;;;;;;;;;;;;;;;-142.75;100.00;76582.09;5034949;28;20009;-69
2023/03/22 08:47:37;;;;;;;;;;;;;;;-142.75;100.00;76570.28;5028132;28;20003;-68
2023/03/22 08:50:03;;;;;;;;;;;;;;;-142.75;100.00;76562.41;5030403;28;19917;-68
2023/03/22 08:52:28;;;;;;;;;;;;;;;-142.75;100.00;76564.38;5036127;28;19920;-68
2023/03/22 08:54:54;;;;;;;;;;;;;;;-142.75;100.00;76554.53;5041339;28;19917;-69
2023/03/22 08:57:20;;;;;;;;;;;;;;;-142.75;100.00;76554.53;5054208;28;19920;-68
2023/03/22 08:59:46;;;;;;;;;;;;;;;-142.75;100.00;76548.63;5044750;28;19917;-70
2023/03/22 09:02:11;;;;;;;;;;;;;;;-142.75;100.00;76530.91;5042760;28;20015;-67
2023/03/22 09:04:37;;;;;;;;;;;;;;;-142.75;100.00;76542.72;5042316;28;19917;-68
2023/03/22 09:07:02;;;;;;;;;;;;;;;-142.75;100.00;76532.88;5044988;28;19913;-67
2023/03/22 09:09:27;;;;;;;;;;;;;;;-142.75;100.00;76538.78;5044643;28;19967;-68
2023/03/22 09:11:52;;;;;;;;;;;;;;;-142.75;100.00;76542.72;5044832;28;19917;-70
2023/03/22 09:14:17;;;;;;;;;;;;;;;-142.75;100.00;76542.72;5045209;28;19913;-68
2023/03/22 09:16:43;;;;;;;;;;;;;;;-142.75;100.00;76536.84;5044643;28;19917;-69
2023/03/22 09:19:08;;;;;;;;;;;;;;;-142.75;100.00;76536.84;5042684;28;20013;-67
2023/03/22 09:21:33;;;;;;;;;;;;;;;-142.75;100.00;76527.00;5030271;28;19924;-68
2023/03/22 09:23:59;;;;;;;;;;;;;;;-142.75;100.00;76528.97;5033154;28;19921;-68
2023/03/22 09:26:24;;;;;;;;;;;;;;;-142.75;100.00;76523.06;5022153;28;20654;-69
2023/03/22 09:28:50;;;;;;;;;;;;;;;-142.75;100.00;76521.09;5022655;28;19917;-69
2023/03/22 09:31:15;;;;;;;;;;;;;;;-142.75;100.00;76503.38;5034645;28;19936;-68
2023/03/22 09:33:40;;;;;;;;;;;;;;;-142.75;100.00;76509.28;5034062;28;20304;-68
2023/03/22 09:36:06;;;;;;;;;;;;;;;-142.75;100.00;76497.47;5034135;28;19913;-67
2023/03/22 09:38:32;;;;;;;;;;;;;;;-142.75;100.00;76499.44;5033777;28;19913;-67
2023/03/22 09:41:01;;;;;;;;;;;;;;;-142.75;100.00;76499.44;5033442;28;19923;-68
2023/03/22 09:43:38;;;;;;;;;;;;;;;-142.75;100.00;76491.56;5033918;28;19917;-69
2023/03/22 09:46:06;;;;;;;;;;;;;;;-142.75;100.00;76487.63;5032716;28;20004;-68
2023/03/22 09:48:39;;;;;;;;;;;;;;;-142.75;100.00;76491.56;5032519;28;19971;-68
2023/03/22 09:51:06;;;;;;;;;;;;;;;-142.75;100.00;76493.53;5024338;28;19963;-68
2023/03/22 09:53:32;;;;;;;;;;;;;;;-142.75;100.00;76487.63;5024197;28;19920;-67
2023/03/22 09:55:57;;;;;;;;;;;;;;;-142.75;100.00;76491.56;5026696;28;20722;-65
2023/03/22 09:58:28;;;;;;;;;;;;;;;-142.75;100.00;76479.75;5025447;28;20261;-69
2023/03/22 10:01:03;;;;;;;;;;;;;;;-142.75;100.00;76497.47;5032996;28;19952;-68
2023/03/22 10:03:37;;;;;;;;;;;;;;;-142.75;100.00;76499.44;5032201;28;19963;-67
2023/03/22 10:06:09;;;;;;;;;;;;;;;-142.75;100.00;76501.41;5033331;28;20458;-67
2023/03/22 10:08:43;;;;;;;;;;;;;;;-142.75;100.00;76503.38;5035760;28;19920;-68
2023/03/22 10:11:18;;;;;;;;;;;;;;;-142.75;100.00;76499.44;5043851;28;19921;-66
2023/03/22 10:13:49;;;;;;;;;;;;;;;-142.75;100.00;76497.47;5042304;28;19983;-68
2023/03/22 10:16:23;;;;;;;;;;;;;;;-142.75;100.00;76499.44;5039516;28;19917;-68
2023/03/22 10:18:50;;;;;;;;;;;;;;;-142.75;100.00;76483.69;5041766;28;19913;-67
2023/03/22 10:21:16;;;;;;;;;;;;;;;-142.75;100.00;76507.31;5047341;28;19920;-67
2023/03/22 10:23:51;;;;;;;;;;;;;;;-142.75;100.00;76493.53;5046599;28;19912;-66
2023/03/22 10:26:30;;;;;;;;;;;;;;;-142.75;100.00;76483.69;5048235;28;20307;-66
2023/03/22 10:29:00;;;;;;;;;;;;;;;-142.75;100.00;76491.56;5052790;28;19913;-66
2023/03/22 10:31:26;;;;;;;;;;;;;;;-142.75;100.00;76471.88;5052554;28;19952;-68
2023/03/22 10:33:54;;;;;;;;;;;;;;;-142.75;100.00;76458.09;5052870;28;19913;-66
2023/03/22 10:36:22;;;;;;;;;;;;;;;-142.75;100.00;76454.16;5052995;28;20479;-66
2023/03/22 10:38:55;;;;;;;;;;;;;;;-142.75;100.00;76467.94;5048582;28;19962;-67
2023/03/22 10:41:22;;;;;;;;;;;;;;;-142.75;100.00;76450.22;5020126;28;19944;-67
2023/03/22 10:43:50;;;;;;;;;;;;;;;-142.75;100.00;76436.44;5021654;28;20436;-67
2023/03/22 10:46:20;;;;;;;;;;;;;;;-142.75;100.00;76418.72;5021445;28;19920;-68
2023/03/22 10:48:47;;;;;;;;;;;;;;;-142.75;100.00;76436.44;5021313;28;19921;-67
2023/03/22 10:51:25;;;;;;;;;;;;;;;-142.75;100.00;76412.81;5022264;28;19920;-68
2023/03/22 10:53:52;;;;;;;;;;;;;;;-142.75;100.00;76412.81;5021787;28;19920;-68
2023/03/22 10:56:19;;;;;;;;;;;;;;;-142.75;100.00;76412.81;5021700;28;19921;-67
2023/03/22 10:58:44;;;;;;;;;;;;;;;-142.75;100.00;76397.06;5022958;28;19917;-67
2023/03/22 11:01:11;;;;;;;;;;;;;;;-142.75;100.00;76402.97;5023351;28;20312;-66
2023/03/22 11:03:49;;;;;;;;;;;;;;;-142.75;100.00;76410.84;5039461;28;19920;-65
2023/03/22 11:06:16;;;;;;;;;;;;;;;-142.75;100.00;76408.88;5040433;28;19924;-69
2023/03/22 11:08:42;;;;;;;;;;;;;;;-142.75;100.00;76408.88;5039362;28;20287;-66
2023/03/22 11:11:27;;;;;;;;;;;;;;;-142.75;100.00;76395.09;5038702;28;19913;-68
2023/03/22 11:13:54;;;;;;;;;;;;;;;-142.75;100.00;76406.91;5019791;28;19913;-67
2023/03/22 11:16:19;;;;;;;;;;;;;;;-142.75;100.00;76408.88;5012326;28;19920;-68
2023/03/22 11:18:45;;;;;;;;;;;;;;;-142.75;100.00;76424.63;5012437;28;19913;-67
2023/03/22 11:21:11;;;;;;;;;;;;;;;-142.75;100.00;76418.72;5012347;28;20274;-68
2023/03/22 11:23:39;;;;;;;;;;;;;;;-142.75;100.00;76432.50;5022670;28;19917;-67
2023/03/22 11:26:09;;;;;;;;;;;;;;;-142.75;100.00;76432.50;5031464;28;19921;-67
2023/03/22 11:28:36;;;;;;;;;;;;;;;-142.75;100.00;76418.72;5025535;28;19921;-68
2023/03/22 11:31:07;;;;;;;;;;;;;;;-142.75;100.00;76434.47;5021614;28;19996;-66
2023/03/22 11:33:32;;;;;;;;;;;;;;;-142.75;100.00;76420.69;5031815;28;19913;-68
2023/03/22 11:35:59;;;;;;;;;;;;;;;-142.75;100.00;76440.38;5033062;28;19929;-65
2023/03/22 11:38:31;;;;;;;;;;;;;;;-142.75;100.00;76448.25;5051813;28;19917;-66
2023/03/22 11:41:07;;;;;;;;;;;;;;;-142.75;100.00;76442.34;5051894;28;20011;-66
2023/03/22 11:43:41;;;;;;;;;;;;;;;-142.75;100.00;76440.38;5042461;28;19917;-66
2023/03/22 11:46:06;;;;;;;;;;;;;;;-142.75;100.00;76446.28;5032055;28;19920;-66
2023/03/22 11:48:32;;;;;;;;;;;;;;;-142.75;100.00;76442.34;5031740;28;20015;-67
2023/03/22 11:51:04;;;;;;;;;;;;;;;-142.75;100.00;76432.50;5031779;28;19999;-64
2023/03/22 11:53:31;;;;;;;;;;;;;;;-142.75;100.00;76426.59;5031650;28;19995;-65
2023/03/22 11:55:57;;;;;;;;;;;;;;;-142.75;100.00;76418.72;5031895;28;20008;-67
2023/03/22 11:58:27;;;;;;;;;;;;;;;-142.75;100.00;76426.59;5031330;28;20407;-67
2023/03/22 12:00:54;;;;;;;;;;;;;;;-142.75;100.00;76432.50;5031653;28;19918;-67
2023/03/22 12:03:22;;;;;;;;;;;;;;;-142.75;100.00;76424.63;5022969;28;19926;-64
2023/03/22 12:05:49;;;;;;;;;;;;;;;-142.75;100.00;76416.75;5019609;28;19917;-65
2023/03/22 12:08:14;;;;;;;;;;;;;;;-142.75;100.00;76416.75;5022036;28;19917;-65
2023/03/22 12:10:41;;;;;;;;;;;;;;;-142.75;100.00;76416.75;5045042;28;19971;-66
2023/03/22 12:13:11;;;;;;;;;;;;;;;-142.75;100.00;76418.72;5045888;28;20315;-68
2023/03/22 12:15:41;;;;;;;;;;;;;;;-142.75;100.00;76408.88;5032736;28;19913;-68
2023/03/22 12:18:11;;;;;;;;;;;;;;;-142.75;100.00;76381.31;5030067;28;19917;-67